sensor_id;sensor_type;location;lat;lon;timestamp;P1;durP1;ratioP1;P2;durP2;ratioP2
24631;SDS011;59977;48.782;9.190;2023-12-20T00:01:31;1.80;;;1.33;;
24631;SDS011;59977;48.782;9.190;2023-12-20T00:03:57;1.73;;;1.13;;
24631;SDS011;59977;48.782;9.190;2023-12-20T00:06:22;2.03;;;1.35;;
24631;SDS011;59977;48.782;9.190;2023-12-20T00:08:48;2.05;;;1.33;;
24631;SDS011;59977;48.782;9.190;2023-12-20T00:11:15;2.08;;;1.08;;
24631;SDS011;59977;48.782;9.190;2023-12-20T00:13:40;2.13;;;1.30;;
24631;SDS011;59977;48.782;9.190;2023-12-20T00:16:06;1.65;;;1.08;;
24631;SDS011;59977;48.782;9.190;2023-12-20T00:18:31;4.45;;;1.38;;
24631;SDS011;59977;48.782;9.190;2023-12-20T00:20:57;1.77;;;1.13;;
24631;SDS011;59977;48.782;9.190;2023-12-20T00:23:23;2.08;;;1.38;;
24631;SDS011;59977;48.782;9.190;2023-12-20T00:25:48;1.40;;;1.10;;
24631;SDS011;59977;48.782;9.190;2023-12-20T00:28:14;2.65;;;1.30;;
24631;SDS011;59977;48.782;9.190;2023-12-20T00:30:40;1.55;;;1.00;;
24631;SDS011;59977;48.782;9.190;2023-12-20T00:33:05;2.13;;;1.20;;
24631;SDS011;59977;48.782;9.190;2023-12-20T00:35:31;2.50;;;1.20;;
24631;SDS011;59977;48.782;9.190;2023-12-20T00:37:57;4.78;;;1.10;;
24631;SDS011;59977;48.782;9.190;2023-12-20T00:40:23;1.88;;;1.30;;
24631;SDS011;59977;48.782;9.190;2023-12-20T00:42:49;5.68;;;1.40;;
24631;SDS011;59977;48.782;9.190;2023-12-20T00:45:15;3.05;;;1.48;;
24631;SDS011;59977;48.782;9.190;2023-12-20T00:47:40;1.40;;;1.13;;
24631;SDS011;59977;48.782;9.190;2023-12-20T00:50:06;2.13;;;1.30;;
24631;SDS011;59977;48.782;9.190;2023-12-20T00:52:32;1.83;;;1.20;;
24631;SDS011;59977;48.782;9.190;2023-12-20T00:54:58;3.72;;;1.20;;
24631;SDS011;59977;48.782;9.190;2023-12-20T00:57:23;4.80;;;1.00;;
24631;SDS011;59977;48.782;9.190;2023-12-20T00:59:50;5.45;;;1.20;;
24631;SDS011;59977;48.782;9.190;2023-12-20T01:02:16;2.28;;;1.00;;
24631;SDS011;59977;48.782;9.190;2023-12-20T01:04:41;1.75;;;1.23;;
24631;SDS011;59977;48.782;9.190;2023-12-20T01:07:07;1.42;;;1.17;;
24631;SDS011;59977;48.782;9.190;2023-12-20T01:09:33;2.28;;;1.10;;
24631;SDS011;59977;48.782;9.190;2023-12-20T01:11:58;2.85;;;1.35;;
24631;SDS011;59977;48.782;9.190;2023-12-20T01:14:24;1.48;;;1.10;;
24631;SDS011;59977;48.782;9.190;2023-12-20T01:16:50;2.53;;;1.33;;
24631;SDS011;59977;48.782;9.190;2023-12-20T01:19:15;3.53;;;1.42;;
24631;SDS011;59977;48.782;9.190;2023-12-20T01:21:41;1.00;;;0.80;;
24631;SDS011;59977;48.782;9.190;2023-12-20T01:24:07;5.00;;;1.20;;
24631;SDS011;59977;48.782;9.190;2023-12-20T01:26:32;3.17;;;1.23;;
24631;SDS011;59977;48.782;9.190;2023-12-20T01:28:58;3.13;;;1.75;;
24631;SDS011;59977;48.782;9.190;2023-12-20T01:31:23;2.53;;;1.25;;
24631;SDS011;59977;48.782;9.190;2023-12-20T01:33:49;4.18;;;1.10;;
24631;SDS011;59977;48.782;9.190;2023-12-20T01:36:15;2.78;;;1.17;;
24631;SDS011;59977;48.782;9.190;2023-12-20T01:38:40;3.78;;;1.65;;
24631;SDS011;59977;48.782;9.190;2023-12-20T01:41:06;4.38;;;1.30;;
24631;SDS011;59977;48.782;9.190;2023-12-20T01:43:31;3.00;;;1.50;;
24631;SDS011;59977;48.782;9.190;2023-12-20T01:45:57;2.33;;;1.48;;
24631;SDS011;59977;48.782;9.190;2023-12-20T01:48:23;4.20;;;1.33;;
24631;SDS011;59977;48.782;9.190;2023-12-20T01:50:50;1.70;;;1.40;;
24631;SDS011;59977;48.782;9.190;2023-12-20T01:53:16;1.67;;;1.10;;
24631;SDS011;59977;48.782;9.190;2023-12-20T01:55:44;2.75;;;1.30;;
24631;SDS011;59977;48.782;9.190;2023-12-20T01:58:09;7.28;;;3.88;;
24631;SDS011;59977;48.782;9.190;2023-12-20T02:00:37;2.03;;;0.90;;
24631;SDS011;59977;48.782;9.190;2023-12-20T02:03:03;2.80;;;1.27;;
24631;SDS011;59977;48.782;9.190;2023-12-20T02:05:29;2.25;;;1.30;;
24631;SDS011;59977;48.782;9.190;2023-12-20T02:07:55;1.80;;;1.20;;
24631;SDS011;59977;48.782;9.190;2023-12-20T02:10:21;1.73;;;1.20;;
24631;SDS011;59977;48.782;9.190;2023-12-20T02:12:47;1.70;;;1.10;;
24631;SDS011;59977;48.782;9.190;2023-12-20T02:15:13;1.65;;;1.20;;
24631;SDS011;59977;48.782;9.190;2023-12-20T02:17:39;2.28;;;1.30;;
24631;SDS011;59977;48.782;9.190;2023-12-20T02:20:05;2.50;;;1.17;;
24631;SDS011;59977;48.782;9.190;2023-12-20T02:22:31;1.73;;;0.95;;
24631;SDS011;59977;48.782;9.190;2023-12-20T02:24:57;1.40;;;1.00;;
24631;SDS011;59977;48.782;9.190;2023-12-20T02:27:22;1.33;;;1.13;;
24631;SDS011;59977;48.782;9.190;2023-12-20T02:29:48;1.40;;;1.05;;
24631;SDS011;59977;48.782;9.190;2023-12-20T02:32:15;1.48;;;1.02;;
24631;SDS011;59977;48.782;9.190;2023-12-20T02:34:47;2.08;;;1.10;;
24631;SDS011;59977;48.782;9.190;2023-12-20T02:37:13;2.45;;;1.20;;
24631;SDS011;59977;48.782;9.190;2023-12-20T02:39:39;4.15;;;1.10;;
24631;SDS011;59977;48.782;9.190;2023-12-20T02:42:05;1.85;;;1.20;;
24631;SDS011;59977;48.782;9.190;2023-12-20T02:44:30;4.07;;;1.30;;
24631;SDS011;59977;48.782;9.190;2023-12-20T02:46:56;4.70;;;1.08;;
24631;SDS011;59977;48.782;9.190;2023-12-20T02:49:21;1.30;;;1.10;;
24631;SDS011;59977;48.782;9.190;2023-12-20T02:51:47;1.63;;;1.02;;
24631;SDS011;59977;48.782;9.190;2023-12-20T02:54:13;1.85;;;1.10;;
24631;SDS011;59977;48.782;9.190;2023-12-20T02:56:38;3.70;;;1.17;;
24631;SDS011;59977;48.782;9.190;2023-12-20T02:59:04;4.35;;;1.30;;
24631;SDS011;59977;48.782;9.190;2023-12-20T03:01:31;2.10;;;1.20;;
24631;SDS011;59977;48.782;9.190;2023-12-20T03:03:57;2.10;;;1.25;;
24631;SDS011;59977;48.782;9.190;2023-12-20T03:06:22;1.83;;;1.00;;
24631;SDS011;59977;48.782;9.190;2023-12-20T03:08:48;6.63;;;2.25;;
24631;SDS011;59977;48.782;9.190;2023-12-20T03:11:14;1.48;;;1.02;;
24631;SDS011;59977;48.782;9.190;2023-12-20T03:13:39;2.40;;;1.30;;
24631;SDS011;59977;48.782;9.190;2023-12-20T03:16:12;1.48;;;1.00;;
24631;SDS011;59977;48.782;9.190;2023-12-20T03:18:38;3.40;;;1.20;;
24631;SDS011;59977;48.782;9.190;2023-12-20T03:21:04;1.73;;;1.20;;
24631;SDS011;59977;48.782;9.190;2023-12-20T03:23:30;2.25;;;1.20;;
24631;SDS011;59977;48.782;9.190;2023-12-20T03:25:57;2.83;;;1.20;;
24631;SDS011;59977;48.782;9.190;2023-12-20T03:28:23;2.60;;;1.30;;
24631;SDS011;59977;48.782;9.190;2023-12-20T03:30:49;3.25;;;1.23;;
24631;SDS011;59977;48.782;9.190;2023-12-20T03:33:14;2.63;;;1.25;;
24631;SDS011;59977;48.782;9.190;2023-12-20T03:35:40;4.32;;;1.20;;
24631;SDS011;59977;48.782;9.190;2023-12-20T03:38:06;4.88;;;1.17;;
24631;SDS011;59977;48.782;9.190;2023-12-20T03:40:32;2.38;;;0.90;;
24631;SDS011;59977;48.782;9.190;2023-12-20T03:42:57;1.00;;;0.80;;
24631;SDS011;59977;48.782;9.190;2023-12-20T03:45:23;0.90;;;0.60;;
24631;SDS011;59977;48.782;9.190;2023-12-20T03:47:49;1.45;;;0.40;;
24631;SDS011;59977;48.782;9.190;2023-12-20T03:50:14;0.30;;;0.30;;
24631;SDS011;59977;48.782;9.190;2023-12-20T03:52:40;0.40;;;0.40;;
24631;SDS011;59977;48.782;9.190;2023-12-20T03:55:06;0.30;;;0.30;;
24631;SDS011;59977;48.782;9.190;2023-12-20T03:57:31;0.20;;;0.20;;
24631;SDS011;59977;48.782;9.190;2023-12-20T03:59:57;0.32;;;0.25;;
24631;SDS011;59977;48.782;9.190;2023-12-20T04:02:22;0.20;;;0.20;;
24631;SDS011;59977;48.782;9.190;2023-12-20T04:04:48;0.43;;;0.40;;
24631;SDS011;59977;48.782;9.190;2023-12-20T04:07:14;0.55;;;0.30;;
24631;SDS011;59977;48.782;9.190;2023-12-20T04:09:40;0.40;;;0.40;;
24631;SDS011;59977;48.782;9.190;2023-12-20T04:12:06;0.35;;;0.20;;
24631;SDS011;59977;48.782;9.190;2023-12-20T04:14:32;0.63;;;0.20;;
24631;SDS011;59977;48.782;9.190;2023-12-20T04:16:57;1.75;;;0.30;;
24631;SDS011;59977;48.782;9.190;2023-12-20T04:19:23;0.30;;;0.20;;
24631;SDS011;59977;48.782;9.190;2023-12-20T04:21:49;1.42;;;0.50;;
24631;SDS011;59977;48.782;9.190;2023-12-20T04:24:14;5.55;;;0.40;;
24631;SDS011;59977;48.782;9.190;2023-12-20T04:26:40;0.50;;;0.30;;
24631;SDS011;59977;48.782;9.190;2023-12-20T04:29:06;2.55;;;0.30;;
24631;SDS011;59977;48.782;9.190;2023-12-20T04:31:31;0.22;;;0.20;;
24631;SDS011;59977;48.782;9.190;2023-12-20T04:33:57;1.05;;;0.17;;
24631;SDS011;59977;48.782;9.190;2023-12-20T04:36:22;0.55;;;0.40;;
24631;SDS011;59977;48.782;9.190;2023-12-20T04:38:50;0.90;;;0.40;;
24631;SDS011;59977;48.782;9.190;2023-12-20T04:41:15;1.67;;;0.25;;
24631;SDS011;59977;48.782;9.190;2023-12-20T04:43:43;0.30;;;0.20;;
24631;SDS011;59977;48.782;9.190;2023-12-20T04:46:09;2.60;;;0.30;;
24631;SDS011;59977;48.782;9.190;2023-12-20T04:48:35;0.43;;;0.32;;
24631;SDS011;59977;48.782;9.190;2023-12-20T04:51:00;0.50;;;0.38;;
24631;SDS011;59977;48.782;9.190;2023-12-20T04:53:26;1.45;;;0.30;;
24631;SDS011;59977;48.782;9.190;2023-12-20T04:55:52;0.20;;;0.20;;
24631;SDS011;59977;48.782;9.190;2023-12-20T04:58:18;0.43;;;0.30;;
24631;SDS011;59977;48.782;9.190;2023-12-20T05:00:44;0.90;;;0.30;;
24631;SDS011;59977;48.782;9.190;2023-12-20T05:03:09;0.32;;;0.32;;
24631;SDS011;59977;48.782;9.190;2023-12-20T05:05:35;0.57;;;0.30;;
24631;SDS011;59977;48.782;9.190;2023-12-20T05:08:01;0.50;;;0.30;;
24631;SDS011;59977;48.782;9.190;2023-12-20T05:10:26;3.05;;;0.40;;
24631;SDS011;59977;48.782;9.190;2023-12-20T05:12:52;3.17;;;0.30;;
24631;SDS011;59977;48.782;9.190;2023-12-20T05:15:18;0.85;;;0.40;;
24631;SDS011;59977;48.782;9.190;2023-12-20T05:17:44;1.10;;;0.40;;
24631;SDS011;59977;48.782;9.190;2023-12-20T05:20:09;2.03;;;0.43;;
24631;SDS011;59977;48.782;9.190;2023-12-20T05:22:35;0.32;;;0.22;;
24631;SDS011;59977;48.782;9.190;2023-12-20T05:25:01;3.17;;;0.30;;
24631;SDS011;59977;48.782;9.190;2023-12-20T05:27:27;1.90;;;0.30;;
24631;SDS011;59977;48.782;9.190;2023-12-20T05:29:52;0.65;;;0.22;;
24631;SDS011;59977;48.782;9.190;2023-12-20T05:32:18;1.65;;;0.40;;
24631;SDS011;59977;48.782;9.190;2023-12-20T05:34:43;1.42;;;0.45;;
24631;SDS011;59977;48.782;9.190;2023-12-20T05:37:09;1.13;;;0.40;;
24631;SDS011;59977;48.782;9.190;2023-12-20T05:39:35;3.22;;;0.43;;
24631;SDS011;59977;48.782;9.190;2023-12-20T05:42:00;2.70;;;0.50;;
24631;SDS011;59977;48.782;9.190;2023-12-20T05:44:26;2.17;;;0.57;;
24631;SDS011;59977;48.782;9.190;2023-12-20T05:46:51;2.15;;;0.50;;
24631;SDS011;59977;48.782;9.190;2023-12-20T05:49:17;1.25;;;0.40;;
24631;SDS011;59977;48.782;9.190;2023-12-20T05:51:42;3.83;;;0.68;;
24631;SDS011;59977;48.782;9.190;2023-12-20T05:54:09;2.47;;;0.50;;
24631;SDS011;59977;48.782;9.190;2023-12-20T05:56:34;2.17;;;0.30;;
24631;SDS011;59977;48.782;9.190;2023-12-20T05:59:00;1.38;;;0.30;;
24631;SDS011;59977;48.782;9.190;2023-12-20T06:01:26;0.40;;;0.30;;
24631;SDS011;59977;48.782;9.190;2023-12-20T06:03:51;1.48;;;0.50;;
24631;SDS011;59977;48.782;9.190;2023-12-20T06:06:17;4.82;;;1.30;;
24631;SDS011;59977;48.782;9.190;2023-12-20T06:08:43;1.20;;;0.47;;
24631;SDS011;59977;48.782;9.190;2023-12-20T06:11:08;1.30;;;0.60;;
24631;SDS011;59977;48.782;9.190;2023-12-20T06:13:34;2.65;;;0.90;;
24631;SDS011;59977;48.782;9.190;2023-12-20T06:16:00;2.60;;;0.73;;
24631;SDS011;59977;48.782;9.190;2023-12-20T06:18:26;3.42;;;0.77;;
24631;SDS011;59977;48.782;9.190;2023-12-20T06:20:52;2.97;;;0.70;;
24631;SDS011;59977;48.782;9.190;2023-12-20T06:23:17;3.55;;;1.02;;
24631;SDS011;59977;48.782;9.190;2023-12-20T06:25:43;2.60;;;0.80;;
24631;SDS011;59977;48.782;9.190;2023-12-20T06:28:09;3.83;;;0.98;;
24631;SDS011;59977;48.782;9.190;2023-12-20T06:30:35;2.28;;;0.80;;
24631;SDS011;59977;48.782;9.190;2023-12-20T06:33:01;6.38;;;1.00;;
24631;SDS011;59977;48.782;9.190;2023-12-20T06:35:26;4.07;;;0.90;;
24631;SDS011;59977;48.782;9.190;2023-12-20T06:37:52;2.90;;;0.80;;
24631;SDS011;59977;48.782;9.190;2023-12-20T06:40:18;3.33;;;0.90;;
24631;SDS011;59977;48.782;9.190;2023-12-20T06:42:43;2.75;;;0.70;;
24631;SDS011;59977;48.782;9.190;2023-12-20T06:45:09;1.15;;;0.70;;
24631;SDS011;59977;48.782;9.190;2023-12-20T06:47:35;2.33;;;0.90;;
24631;SDS011;59977;48.782;9.190;2023-12-20T06:50:01;1.23;;;0.73;;
24631;SDS011;59977;48.782;9.190;2023-12-20T06:52:26;1.33;;;0.77;;
24631;SDS011;59977;48.782;9.190;2023-12-20T06:54:52;1.13;;;0.90;;
24631;SDS011;59977;48.782;9.190;2023-12-20T06:57:17;6.38;;;1.13;;
24631;SDS011;59977;48.782;9.190;2023-12-20T06:59:44;2.85;;;1.10;;
24631;SDS011;59977;48.782;9.190;2023-12-20T07:02:10;1.63;;;0.85;;
24631;SDS011;59977;48.782;9.190;2023-12-20T07:04:39;0.90;;;0.63;;
24631;SDS011;59977;48.782;9.190;2023-12-20T07:07:05;2.35;;;0.80;;
24631;SDS011;59977;48.782;9.190;2023-12-20T07:09:32;2.80;;;0.80;;
24631;SDS011;59977;48.782;9.190;2023-12-20T07:11:58;2.42;;;0.80;;
24631;SDS011;59977;48.782;9.190;2023-12-20T07:14:24;0.82;;;0.68;;
24631;SDS011;59977;48.782;9.190;2023-12-20T07:16:50;1.30;;;0.70;;
24631;SDS011;59977;48.782;9.190;2023-12-20T07:19:15;0.80;;;0.80;;
24631;SDS011;59977;48.782;9.190;2023-12-20T07:21:41;4.28;;;1.08;;
24631;SDS011;59977;48.782;9.190;2023-12-20T07:24:07;2.65;;;0.90;;
24631;SDS011;59977;48.782;9.190;2023-12-20T07:26:32;2.63;;;0.70;;
24631;SDS011;59977;48.782;9.190;2023-12-20T07:28:59;2.78;;;1.05;;
24631;SDS011;59977;48.782;9.190;2023-12-20T07:31:24;1.27;;;0.80;;
24631;SDS011;59977;48.782;9.190;2023-12-20T07:33:50;2.80;;;1.20;;
24631;SDS011;59977;48.782;9.190;2023-12-20T07:36:15;1.45;;;1.10;;
24631;SDS011;59977;48.782;9.190;2023-12-20T07:38:43;1.83;;;1.00;;
24631;SDS011;59977;48.782;9.190;2023-12-20T07:41:12;3.03;;;1.10;;
24631;SDS011;59977;48.782;9.190;2023-12-20T07:43:38;2.15;;;1.25;;
24631;SDS011;59977;48.782;9.190;2023-12-20T07:46:04;2.80;;;1.17;;
24631;SDS011;59977;48.782;9.190;2023-12-20T07:48:36;2.70;;;1.40;;
24631;SDS011;59977;48.782;9.190;2023-12-20T07:51:02;1.30;;;1.10;;
24631;SDS011;59977;48.782;9.190;2023-12-20T07:53:29;2.33;;;1.30;;
24631;SDS011;59977;48.782;9.190;2023-12-20T07:55:55;2.33;;;1.50;;
24631;SDS011;59977;48.782;9.190;2023-12-20T07:58:20;2.90;;;1.63;;
24631;SDS011;59977;48.782;9.190;2023-12-20T08:00:47;3.67;;;1.40;;
24631;SDS011;59977;48.782;9.190;2023-12-20T08:03:12;2.92;;;1.65;;
24631;SDS011;59977;48.782;9.190;2023-12-20T08:05:38;3.78;;;1.80;;
24631;SDS011;59977;48.782;9.190;2023-12-20T08:08:05;2.22;;;1.52;;
24631;SDS011;59977;48.782;9.190;2023-12-20T08:10:31;2.80;;;1.55;;
24631;SDS011;59977;48.782;9.190;2023-12-20T08:12:57;3.55;;;1.50;;
24631;SDS011;59977;48.782;9.190;2023-12-20T08:15:23;3.00;;;1.70;;
24631;SDS011;59977;48.782;9.190;2023-12-20T08:17:48;3.63;;;1.85;;
24631;SDS011;59977;48.782;9.190;2023-12-20T08:20:16;4.03;;;1.70;;
24631;SDS011;59977;48.782;9.190;2023-12-20T08:22:41;2.88;;;1.70;;
24631;SDS011;59977;48.782;9.190;2023-12-20T08:25:07;3.10;;;1.80;;
24631;SDS011;59977;48.782;9.190;2023-12-20T08:27:33;2.83;;;1.75;;
24631;SDS011;59977;48.782;9.190;2023-12-20T08:30:03;3.10;;;1.52;;
24631;SDS011;59977;48.782;9.190;2023-12-20T08:32:29;3.28;;;1.70;;
24631;SDS011;59977;48.782;9.190;2023-12-20T08:34:55;3.53;;;1.80;;
24631;SDS011;59977;48.782;9.190;2023-12-20T08:37:20;4.05;;;1.83;;
24631;SDS011;59977;48.782;9.190;2023-12-20T08:39:46;4.25;;;1.80;;
24631;SDS011;59977;48.782;9.190;2023-12-20T08:42:11;5.03;;;2.35;;
24631;SDS011;59977;48.782;9.190;2023-12-20T08:44:37;6.80;;;2.30;;
24631;SDS011;59977;48.782;9.190;2023-12-20T08:47:03;7.82;;;2.00;;
24631;SDS011;59977;48.782;9.190;2023-12-20T08:49:28;3.85;;;2.05;;
24631;SDS011;59977;48.782;9.190;2023-12-20T08:51:54;4.90;;;2.00;;
24631;SDS011;59977;48.782;9.190;2023-12-20T08:54:20;2.72;;;1.80;;
24631;SDS011;59977;48.782;9.190;2023-12-20T08:56:45;8.85;;;2.17;;
24631;SDS011;59977;48.782;9.190;2023-12-20T08:59:11;4.65;;;1.65;;
24631;SDS011;59977;48.782;9.190;2023-12-20T09:01:37;4.88;;;1.92;;
24631;SDS011;59977;48.782;9.190;2023-12-20T09:04:03;4.35;;;1.90;;
24631;SDS011;59977;48.782;9.190;2023-12-20T09:06:28;3.50;;;1.80;;
24631;SDS011;59977;48.782;9.190;2023-12-20T09:08:54;3.63;;;1.92;;
24631;SDS011;59977;48.782;9.190;2023-12-20T09:11:20;2.80;;;1.73;;
24631;SDS011;59977;48.782;9.190;2023-12-20T09:13:47;8.88;;;2.30;;
24631;SDS011;59977;48.782;9.190;2023-12-20T09:16:13;3.85;;;2.10;;
24631;SDS011;59977;48.782;9.190;2023-12-20T09:18:40;6.30;;;1.88;;
24631;SDS011;59977;48.782;9.190;2023-12-20T09:21:08;3.55;;;2.08;;
24631;SDS011;59977;48.782;9.190;2023-12-20T09:23:33;4.93;;;2.22;;
24631;SDS011;59977;48.782;9.190;2023-12-20T09:25:59;2.40;;;1.58;;
24631;SDS011;59977;48.782;9.190;2023-12-20T09:28:24;5.63;;;2.10;;
24631;SDS011;59977;48.782;9.190;2023-12-20T09:30:50;4.72;;;1.65;;
24631;SDS011;59977;48.782;9.190;2023-12-20T09:33:17;4.00;;;1.85;;
24631;SDS011;59977;48.782;9.190;2023-12-20T09:35:43;6.18;;;1.73;;
24631;SDS011;59977;48.782;9.190;2023-12-20T09:38:09;2.45;;;1.60;;
24631;SDS011;59977;48.782;9.190;2023-12-20T09:40:34;5.85;;;2.03;;
24631;SDS011;59977;48.782;9.190;2023-12-20T09:43:08;6.60;;;1.52;;
24631;SDS011;59977;48.782;9.190;2023-12-20T09:45:36;3.38;;;1.40;;
24631;SDS011;59977;48.782;9.190;2023-12-20T09:48:03;8.55;;;1.70;;
24631;SDS011;59977;48.782;9.190;2023-12-20T09:50:30;4.80;;;1.80;;
24631;SDS011;59977;48.782;9.190;2023-12-20T09:52:57;5.15;;;1.73;;
24631;SDS011;59977;48.782;9.190;2023-12-20T09:55:25;9.00;;;1.75;;
24631;SDS011;59977;48.782;9.190;2023-12-20T09:57:57;7.93;;;1.58;;
24631;SDS011;59977;48.782;9.190;2023-12-20T10:00:24;6.03;;;1.63;;
24631;SDS011;59977;48.782;9.190;2023-12-20T10:02:50;9.55;;;2.13;;
24631;SDS011;59977;48.782;9.190;2023-12-20T10:05:23;7.03;;;1.92;;
24631;SDS011;59977;48.782;9.190;2023-12-20T10:07:58;5.45;;;1.42;;
24631;SDS011;59977;48.782;9.190;2023-12-20T10:10:25;6.07;;;1.70;;
24631;SDS011;59977;48.782;9.190;2023-12-20T10:15:46;5.45;;;1.30;;
24631;SDS011;59977;48.782;9.190;2023-12-20T10:18:12;8.25;;;1.67;;
24631;SDS011;59977;48.782;9.190;2023-12-20T10:20:39;7.50;;;2.05;;
24631;SDS011;59977;48.782;9.190;2023-12-20T10:23:06;12.20;;;2.20;;
24631;SDS011;59977;48.782;9.190;2023-12-20T10:25:33;9.50;;;1.83;;
24631;SDS011;59977;48.782;9.190;2023-12-20T10:28:09;5.22;;;1.63;;
24631;SDS011;59977;48.782;9.190;2023-12-20T10:30:36;8.13;;;1.75;;
24631;SDS011;59977;48.782;9.190;2023-12-20T10:33:02;13.70;;;2.70;;
24631;SDS011;59977;48.782;9.190;2023-12-20T10:35:28;10.68;;;1.52;;
24631;SDS011;59977;48.782;9.190;2023-12-20T10:37:55;7.82;;;1.65;;
24631;SDS011;59977;48.782;9.190;2023-12-20T10:40:23;9.32;;;1.92;;
24631;SDS011;59977;48.782;9.190;2023-12-20T10:42:52;10.32;;;2.42;;
24631;SDS011;59977;48.782;9.190;2023-12-20T10:45:19;8.68;;;2.05;;
24631;SDS011;59977;48.782;9.190;2023-12-20T10:47:46;7.22;;;1.80;;
24631;SDS011;59977;48.782;9.190;2023-12-20T10:50:14;11.48;;;1.80;;
24631;SDS011;59977;48.782;9.190;2023-12-20T10:52:40;6.40;;;1.40;;
24631;SDS011;59977;48.782;9.190;2023-12-20T10:55:07;6.38;;;1.58;;
24631;SDS011;59977;48.782;9.190;2023-12-20T10:57:34;11.07;;;1.65;;
24631;SDS011;59977;48.782;9.190;2023-12-20T11:00:02;9.10;;;2.67;;
24631;SDS011;59977;48.782;9.190;2023-12-20T11:02:35;5.72;;;1.70;;
24631;SDS011;59977;48.782;9.190;2023-12-20T11:08:01;6.07;;;1.52;;
24631;SDS011;59977;48.782;9.190;2023-12-20T11:10:40;4.70;;;1.45;;
24631;SDS011;59977;48.782;9.190;2023-12-20T11:13:26;6.90;;;1.80;;
24631;SDS011;59977;48.782;9.190;2023-12-20T11:15:57;8.27;;;1.98;;
24631;SDS011;59977;48.782;9.190;2023-12-20T11:18:30;7.57;;;1.90;;
24631;SDS011;59977;48.782;9.190;2023-12-20T11:21:01;9.05;;;1.63;;
24631;SDS011;59977;48.782;9.190;2023-12-20T11:23:29;9.15;;;1.73;;
24631;SDS011;59977;48.782;9.190;2023-12-20T11:25:56;10.73;;;1.60;;
24631;SDS011;59977;48.782;9.190;2023-12-20T11:28:25;8.25;;;2.20;;
24631;SDS011;59977;48.782;9.190;2023-12-20T11:30:55;14.32;;;2.00;;
24631;SDS011;59977;48.782;9.190;2023-12-20T11:33:45;5.55;;;1.63;;
24631;SDS011;59977;48.782;9.190;2023-12-20T11:36:18;9.50;;;2.00;;
24631;SDS011;59977;48.782;9.190;2023-12-20T11:38:53;9.52;;;1.67;;
24631;SDS011;59977;48.782;9.190;2023-12-20T11:41:23;6.53;;;1.45;;
24631;SDS011;59977;48.782;9.190;2023-12-20T11:43:55;9.38;;;1.63;;
24631;SDS011;59977;48.782;9.190;2023-12-20T11:46:21;8.10;;;1.52;;
24631;SDS011;59977;48.782;9.190;2023-12-20T11:48:59;6.60;;;1.75;;
24631;SDS011;59977;48.782;9.190;2023-12-20T11:51:25;7.78;;;1.55;;
24631;SDS011;59977;48.782;9.190;2023-12-20T11:53:51;13.65;;;2.00;;
24631;SDS011;59977;48.782;9.190;2023-12-20T11:56:18;11.95;;;1.58;;
24631;SDS011;59977;48.782;9.190;2023-12-20T11:58:44;9.50;;;1.90;;
24631;SDS011;59977;48.782;9.190;2023-12-20T12:01:09;10.85;;;2.25;;
24631;SDS011;59977;48.782;9.190;2023-12-20T12:03:36;6.85;;;1.85;;
24631;SDS011;59977;48.782;9.190;2023-12-20T12:06:05;9.82;;;1.98;;
24631;SDS011;59977;48.782;9.190;2023-12-20T12:08:31;6.63;;;2.20;;
24631;SDS011;59977;48.782;9.190;2023-12-20T12:10:56;10.35;;;1.70;;
24631;SDS011;59977;48.782;9.190;2023-12-20T12:13:22;10.50;;;2.15;;
24631;SDS011;59977;48.782;9.190;2023-12-20T12:15:52;8.43;;;1.70;;
24631;SDS011;59977;48.782;9.190;2023-12-20T12:18:18;9.98;;;1.92;;
24631;SDS011;59977;48.782;9.190;2023-12-20T12:20:44;5.97;;;2.13;;
24631;SDS011;59977;48.782;9.190;2023-12-20T12:23:10;5.93;;;1.65;;
24631;SDS011;59977;48.782;9.190;2023-12-20T12:25:36;6.55;;;2.00;;
24631;SDS011;59977;48.782;9.190;2023-12-20T12:28:02;6.50;;;1.90;;
24631;SDS011;59977;48.782;9.190;2023-12-20T12:30:28;5.32;;;1.80;;
24631;SDS011;59977;48.782;9.190;2023-12-20T12:32:55;8.93;;;1.92;;
24631;SDS011;59977;48.782;9.190;2023-12-20T12:35:21;9.57;;;2.05;;
24631;SDS011;59977;48.782;9.190;2023-12-20T12:37:47;8.85;;;2.50;;
24631;SDS011;59977;48.782;9.190;2023-12-20T12:40:13;10.70;;;2.38;;
24631;SDS011;59977;48.782;9.190;2023-12-20T12:42:41;12.63;;;2.10;;
24631;SDS011;59977;48.782;9.190;2023-12-20T12:45:08;7.47;;;1.98;;
24631;SDS011;59977;48.782;9.190;2023-12-20T12:47:34;11.00;;;2.15;;
24631;SDS011;59977;48.782;9.190;2023-12-20T12:50:00;11.60;;;2.25;;
24631;SDS011;59977;48.782;9.190;2023-12-20T12:52:26;9.52;;;2.38;;
24631;SDS011;59977;48.782;9.190;2023-12-20T12:54:52;11.38;;;2.20;;
24631;SDS011;59977;48.782;9.190;2023-12-20T12:57:18;7.15;;;1.95;;
24631;SDS011;59977;48.782;9.190;2023-12-20T12:59:44;10.40;;;1.75;;
24631;SDS011;59977;48.782;9.190;2023-12-20T13:02:13;6.22;;;1.67;;
24631;SDS011;59977;48.782;9.190;2023-12-20T13:04:40;9.23;;;2.15;;
24631;SDS011;59977;48.782;9.190;2023-12-20T13:07:06;8.32;;;1.92;;
24631;SDS011;59977;48.782;9.190;2023-12-20T13:09:32;6.75;;;1.80;;
24631;SDS011;59977;48.782;9.190;2023-12-20T13:11:58;7.30;;;1.70;;
24631;SDS011;59977;48.782;9.190;2023-12-20T13:14:24;10.68;;;1.77;;
24631;SDS011;59977;48.782;9.190;2023-12-20T13:16:50;9.27;;;1.85;;
24631;SDS011;59977;48.782;9.190;2023-12-20T13:19:15;9.60;;;1.92;;
24631;SDS011;59977;48.782;9.190;2023-12-20T13:21:41;6.97;;;2.03;;
24631;SDS011;59977;48.782;9.190;2023-12-20T13:24:07;8.75;;;1.77;;
24631;SDS011;59977;48.782;9.190;2023-12-20T13:26:32;7.97;;;1.33;;
24631;SDS011;59977;48.782;9.190;2023-12-20T13:28:58;6.95;;;1.63;;
24631;SDS011;59977;48.782;9.190;2023-12-20T13:31:24;7.35;;;1.80;;
24631;SDS011;59977;48.782;9.190;2023-12-20T13:33:49;8.80;;;1.52;;
24631;SDS011;59977;48.782;9.190;2023-12-20T13:36:17;6.13;;;1.45;;
24631;SDS011;59977;48.782;9.190;2023-12-20T13:38:43;7.63;;;1.90;;
24631;SDS011;59977;48.782;9.190;2023-12-20T13:41:09;4.55;;;1.58;;
24631;SDS011;59977;48.782;9.190;2023-12-20T13:43:34;8.05;;;1.45;;
24631;SDS011;59977;48.782;9.190;2023-12-20T13:46:00;6.35;;;1.50;;
24631;SDS011;59977;48.782;9.190;2023-12-20T13:48:26;10.27;;;1.70;;
24631;SDS011;59977;48.782;9.190;2023-12-20T13:50:51;6.68;;;1.50;;
24631;SDS011;59977;48.782;9.190;2023-12-20T13:53:17;8.23;;;1.70;;
24631;SDS011;59977;48.782;9.190;2023-12-20T13:55:44;6.72;;;1.58;;
24631;SDS011;59977;48.782;9.190;2023-12-20T13:58:09;6.43;;;1.20;;
24631;SDS011;59977;48.782;9.190;2023-12-20T14:00:35;6.50;;;1.83;;
24631;SDS011;59977;48.782;9.190;2023-12-20T14:03:01;9.68;;;1.67;;
24631;SDS011;59977;48.782;9.190;2023-12-20T14:05:28;7.32;;;1.67;;
24631;SDS011;59977;48.782;9.190;2023-12-20T14:07:55;6.18;;;1.27;;
24631;SDS011;59977;48.782;9.190;2023-12-20T14:10:23;8.60;;;1.90;;
24631;SDS011;59977;48.782;9.190;2023-12-20T14:12:51;7.05;;;1.48;;
24631;SDS011;59977;48.782;9.190;2023-12-20T14:15:17;8.98;;;1.85;;
24631;SDS011;59977;48.782;9.190;2023-12-20T14:17:43;16.13;;;2.00;;
24631;SDS011;59977;48.782;9.190;2023-12-20T14:20:09;5.00;;;1.60;;
24631;SDS011;59977;48.782;9.190;2023-12-20T14:22:35;7.63;;;1.65;;
24631;SDS011;59977;48.782;9.190;2023-12-20T14:25:01;11.20;;;2.35;;
24631;SDS011;59977;48.782;9.190;2023-12-20T14:27:27;7.03;;;1.70;;
24631;SDS011;59977;48.782;9.190;2023-12-20T14:29:53;8.20;;;2.10;;
24631;SDS011;59977;48.782;9.190;2023-12-20T14:32:19;8.20;;;1.40;;
24631;SDS011;59977;48.782;9.190;2023-12-20T14:34:45;8.93;;;1.80;;
24631;SDS011;59977;48.782;9.190;2023-12-20T14:37:11;6.68;;;1.55;;
24631;SDS011;59977;48.782;9.190;2023-12-20T14:39:37;9.35;;;1.75;;
24631;SDS011;59977;48.782;9.190;2023-12-20T14:42:06;16.00;;;3.17;;
24631;SDS011;59977;48.782;9.190;2023-12-20T14:44:34;8.10;;;2.00;;
24631;SDS011;59977;48.782;9.190;2023-12-20T14:47:00;6.00;;;1.90;;
24631;SDS011;59977;48.782;9.190;2023-12-20T14:49:27;11.18;;;1.98;;